createdAt,value
2023-08-29T00:00:21.106Z,96411.97
2023-08-29T00:02:49.674Z,96412.13
2023-08-29T00:05:16.912Z,96400.28
2023-08-29T00:07:44.224Z,96417.00
2023-08-29T00:10:11.873Z,96419.53
2023-08-29T00:12:39.632Z,96420.38
2023-08-29T00:15:07.762Z,96432.88
2023-08-29T00:17:35.381Z,96415.91
2023-08-29T00:20:04.066Z,96422.28
2023-08-29T00:22:33.629Z,96432.00
2023-08-29T00:25:01.441Z,96426.38
2023-08-29T00:27:30.828Z,96405.63
2023-08-29T00:29:58.925Z,96427.78
2023-08-29T00:32:27.518Z,96422.22
2023-08-29T00:34:54.732Z,96424.19
2023-08-29T00:37:22.735Z,96430.34
2023-08-29T00:39:50.187Z,96430.72
2023-08-29T00:42:17.234Z,96411.19
2023-08-29T00:44:44.469Z,96426.50
2023-08-29T00:47:12.131Z,96430.66
2023-08-29T00:49:39.699Z,96435.00
2023-08-29T00:52:07.136Z,96433.31
2023-08-29T00:54:34.947Z,96423.00
2023-08-29T00:57:02.356Z,96418.50
2023-08-29T00:59:30.930Z,96405.22
2023-08-29T01:01:58.769Z,96406.06
2023-08-29T01:04:26.509Z,96409.75
2023-08-29T01:06:56.683Z,96405.28
2023-08-29T01:09:24.529Z,96416.56
2023-08-29T01:12:10.820Z,96399.22
2023-08-29T01:14:59.923Z,96406.00
2023-08-29T01:17:33.796Z,96401.78
2023-08-29T01:20:01.935Z,96408.78
2023-08-29T01:22:49.042Z,96401.81
2023-08-29T01:25:47.027Z,96401.84
2023-08-29T01:28:14.822Z,96377.13
2023-08-29T01:30:42.574Z,96365.56
2023-08-29T01:33:10.665Z,96383.63
2023-08-29T01:35:48.644Z,96383.19
2023-08-29T01:38:18.963Z,96365.00
2023-08-29T01:40:46.796Z,96380.44
2023-08-29T01:43:14.387Z,96381.19
2023-08-29T01:45:41.831Z,96381.78
2023-08-29T01:48:12.476Z,96383.56
2023-08-29T01:50:41.831Z,96389.75
2023-08-29T01:53:10.152Z,96377.75
2023-08-29T01:55:40.145Z,96379.22
2023-08-29T01:58:09.177Z,96376.78
2023-08-29T02:00:39.424Z,96369.50
2023-08-29T02:03:06.760Z,96367.63
2023-08-29T02:05:33.941Z,96369.34
2023-08-29T02:08:01.960Z,96367.38
2023-08-29T02:10:32.877Z,96371.94
2023-08-29T02:13:00.398Z,96353.69
2023-08-29T02:15:28.296Z,96359.59
2023-08-29T02:17:56.005Z,96366.06
2023-08-29T02:20:23.181Z,96364.53
2023-08-29T02:22:50.556Z,96354.47
2023-08-29T02:25:19.378Z,96359.22
2023-08-29T02:27:48.711Z,96355.91
2023-08-29T02:30:16.098Z,96359.75
2023-08-29T02:32:43.402Z,96345.50
2023-08-29T02:35:11.573Z,96356.88
2023-08-29T02:37:39.096Z,96349.38
2023-08-29T02:40:09.013Z,96352.28
2023-08-29T02:42:37.593Z,96353.75
2023-08-29T02:45:05.933Z,96332.56
2023-08-29T02:47:33.458Z,96344.59
2023-08-29T02:50:00.646Z,96350.03
2023-08-29T02:52:27.826Z,96349.34
2023-08-29T02:54:54.991Z,96339.94
2023-08-29T02:57:22.286Z,96347.88
2023-08-29T02:59:50.441Z,96356.31
2023-08-29T03:02:17.836Z,96347.72
2023-08-29T03:04:45.281Z,96354.34
2023-08-29T03:07:12.631Z,96357.06
2023-08-29T03:09:39.903Z,96326.63
2023-08-29T03:12:08.137Z,96339.47
2023-08-29T03:14:35.534Z,96337.13
2023-08-29T03:17:04.847Z,96347.75
2023-08-29T03:19:32.396Z,96347.81
2023-08-29T03:22:00.232Z,96325.56
2023-08-29T03:24:27.368Z,96344.34
2023-08-29T03:26:54.549Z,96350.09
2023-08-29T03:29:21.740Z,96341.25
2023-08-29T03:31:48.950Z,96328.41
2023-08-29T03:34:16.039Z,96336.41
2023-08-29T03:36:43.149Z,96317.03
2023-08-29T03:39:10.293Z,96331.31
2023-08-29T03:41:38.791Z,96337.50
2023-08-29T03:44:06.641Z,96340.72
2023-08-29T03:46:33.860Z,96330.91
2023-08-29T03:49:01.080Z,96329.34
2023-08-29T03:51:28.650Z,96339.38
2023-08-29T03:53:55.836Z,96335.31
2023-08-29T03:56:23.159Z,96319.94
2023-08-29T03:58:50.624Z,96308.25
2023-08-29T04:01:21.798Z,96332.00
2023-08-29T04:03:52.608Z,96307.09
2023-08-29T04:06:24.945Z,96328.06
2023-08-29T04:08:53.436Z,96323.50
2023-08-29T04:11:20.688Z,96313.16
2023-08-29T04:13:48.612Z,96316.91
2023-08-29T04:16:17.366Z,96328.81
2023-08-29T04:18:44.522Z,96332.38
2023-08-29T04:21:11.725Z,96275.22
2023-08-29T04:23:38.979Z,96328.53
2023-08-29T04:26:06.229Z,96322.03
2023-08-29T04:28:33.676Z,96321.41
2023-08-29T04:31:11.925Z,96318.50
2023-08-29T04:33:40.415Z,96324.88
2023-08-29T04:36:07.648Z,96307.34
2023-08-29T04:38:34.892Z,96306.16
2023-08-29T04:41:02.035Z,96306.50
2023-08-29T04:43:29.190Z,96308.53
2023-08-29T04:45:57.444Z,96312.06
2023-08-29T04:48:24.704Z,96311.94
2023-08-29T04:50:54.129Z,96297.41
2023-08-29T04:53:22.187Z,96305.44
2023-08-29T04:55:50.362Z,96311.00
2023-08-29T04:58:17.597Z,96308.88
2023-08-29T05:00:45.777Z,96311.78
2023-08-29T05:03:13.054Z,96292.47
2023-08-29T05:05:48.069Z,96304.66
2023-08-29T05:08:15.949Z,96300.66
2023-08-29T05:10:44.545Z,96301.69
2023-08-29T05:13:12.488Z,96284.97
2023-08-29T05:15:43.006Z,96302.16
2023-08-29T05:18:11.715Z,96284.69
2023-08-29T05:20:39.476Z,96294.53
2023-08-29T05:23:06.695Z,96299.34
2023-08-29T05:25:34.312Z,96309.88
2023-08-29T05:28:01.512Z,96304.44
2023-08-29T05:30:31.737Z,96308.91
2023-08-29T05:32:59.829Z,96296.94
2023-08-29T05:35:27.318Z,96300.03
2023-08-29T05:37:57.275Z,96318.22
2023-08-29T05:40:25.403Z,96297.50
2023-08-29T05:42:52.875Z,96304.59
2023-08-29T05:45:21.399Z,96310.31
2023-08-29T05:47:50.046Z,96321.03
2023-08-29T05:50:17.802Z,96321.72
2023-08-29T05:52:46.030Z,96314.22
2023-08-29T05:55:14.197Z,96308.41
2023-08-29T05:57:41.963Z,96318.41
2023-08-29T06:00:14.425Z,96326.88
2023-08-29T06:02:45.664Z,96321.72
2023-08-29T06:05:14.284Z,96323.13
2023-08-29T06:07:41.406Z,96310.88
2023-08-29T06:10:09.550Z,96327.00
2023-08-29T06:12:37.224Z,96310.00
2023-08-29T06:15:10.717Z,96306.59
2023-08-29T06:24:22.588Z,96322.09
2023-08-29T06:26:50.775Z,96320.75
2023-08-29T06:29:18.319Z,96314.09
2023-08-29T06:31:49.040Z,96312.19
2023-08-29T06:34:16.926Z,96305.19
2023-08-29T06:36:44.395Z,96308.84
2023-08-29T06:39:11.472Z,96303.91
2023-08-29T06:41:39.088Z,96322.31
2023-08-29T06:44:07.795Z,96315.97
2023-08-29T06:46:36.280Z,96320.75
2023-08-29T06:49:07.521Z,96293.28
2023-08-29T06:51:37.700Z,96321.50
2023-08-29T06:54:05.335Z,96316.19
2023-08-29T06:56:33.210Z,96314.03
2023-08-29T06:59:00.471Z,96292.50
2023-08-29T07:01:30.416Z,96314.78
2023-08-29T07:04:01.134Z,96301.91
2023-08-29T07:06:31.234Z,96296.91
2023-08-29T07:08:58.897Z,96311.34
2023-08-29T07:34:58.978Z,96308.97
2023-08-29T07:37:28.803Z,96281.06
2023-08-29T07:39:56.574Z,96292.41
2023-08-29T07:42:24.065Z,96280.31
2023-08-29T07:44:51.441Z,96278.16
2023-08-29T07:47:18.701Z,96284.84
2023-08-29T07:49:47.566Z,96270.72
2023-08-29T07:52:15.743Z,96273.25
2023-08-29T07:54:43.404Z,96297.16
2023-08-29T07:57:11.282Z,96296.91
2023-08-29T07:59:39.081Z,96288.72
2023-08-29T08:02:07.218Z,96291.81
2023-08-29T08:04:35.780Z,96297.66
2023-08-29T08:07:03.487Z,96296.44
2023-08-29T08:09:30.917Z,96286.59
2023-08-29T08:11:58.282Z,96279.63
2023-08-29T08:14:29.181Z,96283.31
2023-08-29T08:16:56.653Z,96272.63
2023-08-29T08:19:24.962Z,96282.88
2023-08-29T08:21:53.336Z,96262.38
2023-08-29T08:24:20.747Z,96277.94
2023-08-29T08:26:49.384Z,96271.41
2023-08-29T08:29:16.701Z,96261.38
2023-08-29T08:31:44.292Z,96264.44
2023-08-29T08:34:13.314Z,96269.34
2023-08-29T08:36:42.133Z,96249.66
2023-08-29T08:39:10.053Z,96262.38
2023-08-29T08:41:39.753Z,96252.69
2023-08-29T08:44:10.355Z,96261.53
2023-08-29T08:46:38.889Z,96258.06
2023-08-29T08:49:07.733Z,96258.28
2023-08-29T08:51:38.872Z,96231.59
2023-08-29T08:54:08.696Z,96259.47
2023-08-29T08:56:37.116Z,96241.84
2023-08-29T08:59:05.060Z,96199.56
2023-08-29T09:01:32.550Z,96227.47
2023-08-29T09:04:00.242Z,96234.19
2023-08-29T09:06:27.592Z,96230.06
2023-08-29T09:15:21.172Z,96208.34
2023-08-29T09:17:53.501Z,96218.38
2023-08-29T09:20:25.812Z,96187.50
2023-08-29T09:22:53.088Z,96199.63
2023-08-29T09:25:20.163Z,96206.56
2023-08-29T09:27:51.108Z,96216.19
2023-08-29T09:30:19.399Z,96210.81
2023-08-29T09:32:54.205Z,96199.78
2023-08-29T09:35:24.557Z,96197.53
2023-08-29T09:38:00.682Z,96196.56
2023-08-29T09:40:38.124Z,96200.97
2023-08-29T09:43:10.223Z,96196.28
2023-08-29T09:45:39.313Z,96204.34
2023-08-29T09:48:10.367Z,96214.84
2023-08-29T09:50:39.086Z,96193.13
2023-08-29T09:53:08.437Z,96218.25
2023-08-29T09:55:43.694Z,96222.66
2023-08-29T09:58:13.177Z,96209.19
2023-08-29T10:00:42.651Z,96204.88
2023-08-29T10:03:11.563Z,96198.72
2023-08-29T10:05:48.078Z,96197.69
2023-08-29T10:08:32.347Z,96200.66
2023-08-29T10:11:02.370Z,96184.84
2023-08-29T10:13:30.528Z,96196.25
2023-08-29T10:15:59.168Z,96185.06
2023-08-29T10:18:29.324Z,96199.66
2023-08-29T10:20:58.214Z,96180.13
2023-08-29T10:23:28.182Z,96186.66
2023-08-29T10:25:59.743Z,96204.50
2023-08-29T10:28:27.447Z,96171.38
2023-08-29T10:31:00.163Z,96179.28
2023-08-29T10:33:27.568Z,96167.34
2023-08-29T10:35:55.355Z,96173.88
2023-08-29T10:38:26.420Z,96161.25
2023-08-29T10:41:08.739Z,96157.63
2023-08-29T10:43:38.401Z,96172.13
2023-08-29T10:46:11.686Z,96165.66
2023-08-29T10:48:52.780Z,96171.00
2023-08-29T10:51:24.939Z,96158.22
2023-08-29T10:54:06.803Z,96157.34
2023-08-29T10:56:44.021Z,96140.06
2023-08-29T10:59:32.493Z,96153.84
2023-08-29T11:02:28.737Z,96153.44
2023-08-29T11:05:05.356Z,96159.56
2023-08-29T11:07:36.137Z,96157.50
2023-08-29T11:10:26.041Z,96144.47
2023-08-29T11:13:09.510Z,96131.25
2023-08-29T11:15:52.097Z,96149.19
2023-08-29T11:18:36.043Z,96136.25
2023-08-29T11:21:08.620Z,96127.81
2023-08-29T11:23:41.854Z,96128.63
2023-08-29T11:26:10.416Z,96113.84
2023-08-29T11:28:46.627Z,96136.53
2023-08-29T11:31:13.946Z,96110.72
2023-08-29T11:33:41.163Z,96092.97
2023-08-29T11:36:11.038Z,96076.88
2023-08-29T11:38:38.963Z,96106.94
2023-08-29T11:41:21.838Z,96089.00
2023-08-29T11:44:17.128Z,96087.44
2023-08-29T11:46:48.320Z,96078.78
2023-08-29T11:49:16.638Z,96082.13
2023-08-29T11:51:45.472Z,96081.56
2023-08-29T11:54:54.346Z,96081.22
2023-08-29T11:57:22.101Z,96090.94
2023-08-29T11:59:53.962Z,96074.75
2023-08-29T12:02:24.705Z,96064.69
2023-08-29T12:04:57.856Z,96070.53
2023-08-29T12:07:32.624Z,96074.41
2023-08-29T12:10:09.726Z,96068.47
2023-08-29T12:12:38.533Z,96059.66
2023-08-29T12:15:08.090Z,96056.91
2023-08-29T12:17:41.686Z,96055.66
2023-08-29T12:20:15.451Z,96046.13
2023-08-29T12:22:48.614Z,96050.69
2023-08-29T12:25:16.530Z,96042.50
2023-08-29T12:27:46.155Z,96046.69
2023-08-29T12:30:17.277Z,96050.78
2023-08-29T12:32:46.544Z,96047.41
2023-08-29T12:35:16.486Z,96040.03
2023-08-29T12:37:48.629Z,96035.25
2023-08-29T12:40:18.189Z,96005.84
2023-08-29T12:42:48.705Z,96021.69
2023-08-29T12:45:16.347Z,96001.94
2023-08-29T12:47:47.183Z,96006.72
2023-08-29T12:50:16.051Z,95996.28
2023-08-29T12:52:43.874Z,95997.66
2023-08-29T12:55:13.397Z,95999.69
2023-08-29T12:57:44.357Z,95987.91
2023-08-29T13:00:12.099Z,96005.78
2023-08-29T13:02:41.656Z,96008.66
2023-08-29T13:05:09.558Z,95997.13
2023-08-29T13:07:37.544Z,96004.34
2023-08-29T13:10:09.191Z,96005.63
2023-08-29T13:12:38.888Z,96013.31
2023-08-29T13:15:12.517Z,95992.09
2023-08-29T13:17:41.279Z,96010.63
2023-08-29T13:20:09.146Z,96019.50
2023-08-29T13:22:40.896Z,96017.66
2023-08-29T13:25:08.877Z,96009.13
2023-08-29T13:27:37.866Z,95991.63
2023-08-29T13:30:06.190Z,96008.09
2023-08-29T13:32:38.397Z,96015.53
2023-08-29T13:35:06.129Z,95962.94
2023-08-29T13:37:33.974Z,96022.41
2023-08-29T13:43:22.745Z,96015.41
2023-08-29T13:45:50.244Z,96017.88
2023-08-29T13:48:18.042Z,96012.03
2023-08-29T13:50:46.626Z,96000.50
2023-08-29T13:53:14.283Z,96008.09
2023-08-29T13:55:41.665Z,95995.94
2023-08-29T13:58:09.430Z,95983.47
2023-08-29T14:00:43.235Z,95991.19
2023-08-29T14:03:18.509Z,95993.16
2023-08-29T14:08:20.776Z,95977.00
2023-08-29T14:10:48.198Z,95985.25
2023-08-29T14:13:15.585Z,95977.66
2023-08-29T14:15:42.949Z,95981.13
2023-08-29T14:18:10.905Z,95969.94
2023-08-29T14:20:45.843Z,95961.28
2023-08-29T14:23:13.337Z,95983.66
2023-08-29T14:25:42.077Z,95987.38
2023-08-29T14:28:09.411Z,95967.72
2023-08-29T14:30:42.272Z,95978.31
2023-08-29T14:33:12.471Z,95960.84
2023-08-29T14:35:42.413Z,95966.31
2023-08-29T14:38:11.030Z,95966.44
2023-08-29T14:40:39.229Z,95945.81
2023-08-29T14:43:06.698Z,95962.47
2023-08-29T14:45:34.041Z,95935.66
2023-08-29T14:48:02.688Z,95956.75
2023-08-29T14:50:30.354Z,95955.94
2023-08-29T14:52:57.541Z,95954.44
2023-08-29T14:55:25.901Z,95950.09
2023-08-29T14:57:54.517Z,95948.13
2023-08-29T15:00:21.763Z,95945.44
2023-08-29T15:02:49.882Z,95937.53
2023-08-29T15:05:18.116Z,95947.44
2023-08-29T15:07:45.368Z,95962.81
2023-08-29T15:10:12.722Z,95973.06
2023-08-29T15:12:40.336Z,95965.38
2023-08-29T15:15:08.594Z,95952.91
2023-08-29T15:17:36.220Z,95954.56
2023-08-29T15:20:10.174Z,95928.78
2023-08-29T15:22:38.419Z,95978.09
2023-08-29T15:25:07.900Z,95969.59
2023-08-29T15:27:35.235Z,95973.31
2023-08-29T15:30:04.832Z,95970.03
2023-08-29T15:32:33.950Z,95980.66
2023-08-29T15:35:07.182Z,95972.06
2023-08-29T15:37:36.339Z,95969.88
2023-08-29T15:40:05.052Z,95950.53
2023-08-29T15:42:33.190Z,95964.19
2023-08-29T15:45:00.249Z,95971.25
2023-08-29T15:47:27.847Z,95960.66
2023-08-29T15:49:56.341Z,95966.44
2023-08-29T15:52:25.553Z,95962.44
2023-08-29T15:54:53.830Z,95915.16
2023-08-29T15:57:20.906Z,95965.34
2023-08-29T15:59:48.659Z,95951.13
2023-08-29T16:02:15.881Z,95948.91
2023-08-29T16:04:44.164Z,95944.56
2023-08-29T16:07:11.457Z,95948.88
2023-08-29T16:09:38.878Z,95952.63
2023-08-29T16:12:06.534Z,95946.97
2023-08-29T16:14:33.881Z,95960.38
2023-08-29T16:17:02.523Z,95951.50
2023-08-29T16:19:30.837Z,95950.53
2023-08-29T16:21:58.998Z,95946.41
2023-08-29T16:24:26.194Z,95937.59
2023-08-29T17:13:50.396Z,95941.66
2023-08-29T17:16:23.182Z,95958.91
2023-08-29T17:18:50.611Z,95957.97
2023-08-29T17:21:19.049Z,95947.13
2023-08-29T17:23:47.467Z,95952.81
2023-08-29T17:26:17.406Z,95944.22
2023-08-29T17:28:46.695Z,95960.19
2023-08-29T17:31:13.952Z,95933.47
2023-08-29T17:33:41.108Z,95954.38
2023-08-29T17:36:08.710Z,95954.31
2023-08-29T17:38:35.816Z,95945.03
2023-08-29T17:41:03.189Z,95947.47
2023-08-29T17:43:30.720Z,95953.75
2023-08-29T17:45:58.364Z,95938.91
2023-08-29T17:48:27.453Z,95947.28
2023-08-29T17:51:01.790Z,95943.59
2023-08-29T17:53:29.817Z,95931.09
2023-08-29T17:55:57.553Z,95943.22
2023-08-29T17:58:25.863Z,95947.94
2023-08-29T18:00:53.704Z,95955.00
2023-08-29T18:03:21.120Z,95953.34
2023-08-29T18:05:50.132Z,95946.38
2023-08-29T18:08:18.364Z,95939.66
2023-08-29T18:10:46.982Z,95962.47
2023-08-29T18:13:15.000Z,95961.50
2023-08-29T18:15:43.156Z,95958.06
2023-08-29T18:18:18.359Z,95954.59
2023-08-29T18:20:47.514Z,95961.56
2023-08-29T18:23:14.715Z,95965.13
2023-08-29T18:25:42.115Z,95972.91
2023-08-29T18:28:09.723Z,95965.56
2023-08-29T18:30:37.861Z,95978.69
2023-08-29T18:33:07.996Z,95974.22
2023-08-29T18:35:35.991Z,95976.72
2023-08-29T18:38:06.434Z,95959.94
2023-08-29T18:40:33.914Z,95966.28
2023-08-29T18:43:01.197Z,95974.94
2023-08-29T18:45:28.577Z,95979.25
2023-08-29T18:48:00.102Z,95970.28
2023-08-29T18:50:27.831Z,95979.31
2023-08-29T18:52:56.898Z,95982.22
2023-08-29T18:55:24.165Z,95981.78
2023-08-29T18:57:52.504Z,95971.34
2023-08-29T19:00:21.265Z,95991.66
2023-08-29T19:02:49.668Z,95988.16
2023-08-29T19:05:19.376Z,95993.06
2023-08-29T19:07:47.232Z,95997.16
2023-08-29T19:10:15.217Z,96005.16
2023-08-29T19:12:45.440Z,96003.13
2023-08-29T19:15:12.598Z,96001.88
2023-08-29T19:17:41.159Z,95988.16
2023-08-29T19:20:09.014Z,96012.53
2023-08-29T19:22:36.305Z,96003.94
2023-08-29T19:25:03.927Z,95991.63
2023-08-29T19:27:33.819Z,95995.31
2023-08-29T19:30:01.058Z,96010.06
2023-08-29T19:32:29.343Z,96011.66
2023-08-29T19:34:56.529Z,95999.50
2023-08-29T19:37:23.625Z,96015.13
2023-08-29T19:39:51.121Z,95982.47
2023-08-29T19:42:18.659Z,96023.28
2023-08-29T19:44:45.882Z,96016.06
2023-08-29T19:47:13.130Z,96029.28
2023-08-29T19:49:48.557Z,96010.38
2023-08-29T19:52:17.125Z,96011.78
2023-08-29T19:54:44.547Z,96021.78
2023-08-29T19:57:11.688Z,96026.25
2023-08-29T19:59:38.764Z,96028.06
2023-08-29T20:02:06.230Z,96022.28
2023-08-29T20:04:33.691Z,96026.25
2023-08-29T20:07:00.876Z,96025.72
2023-08-29T20:09:27.953Z,96016.25
2023-08-29T20:11:55.543Z,96026.53
2023-08-29T20:14:22.625Z,96025.63
2023-08-29T20:16:49.954Z,96024.59
2023-08-29T20:19:17.124Z,96023.34
2023-08-29T20:21:44.352Z,96021.72
2023-08-29T20:24:11.433Z,96027.69
2023-08-29T20:26:38.456Z,96033.22
2023-08-29T20:29:05.640Z,96026.88
2023-08-29T20:31:33.128Z,96032.81
2023-08-29T20:34:03.465Z,96022.66
2023-08-29T20:36:37.937Z,96038.69
2023-08-29T20:39:05.158Z,96034.25
2023-08-29T20:41:32.243Z,96036.34
2023-08-29T20:44:10.528Z,96026.53
2023-08-29T20:46:42.395Z,96036.38
2023-08-29T20:49:09.510Z,96041.72
2023-08-29T20:51:39.446Z,96029.97
2023-08-29T20:54:10.483Z,96026.25
2023-08-29T20:56:38.027Z,96042.19
2023-08-29T20:59:05.480Z,96042.03
2023-08-29T21:01:32.569Z,96038.69
2023-08-29T21:03:59.905Z,96033.22
2023-08-29T21:06:28.472Z,96042.16
2023-08-29T21:08:55.745Z,96048.03
2023-08-29T21:11:22.928Z,96038.44
2023-08-29T21:13:50.547Z,96031.34
2023-08-29T21:16:17.603Z,96046.66
2023-08-29T21:18:44.743Z,96040.25
2023-08-29T21:21:12.824Z,96043.16
2023-08-29T21:23:41.026Z,96043.03
2023-08-29T21:26:09.286Z,96056.44
2023-08-29T21:28:37.902Z,96045.81
2023-08-29T21:31:19.420Z,96039.47
2023-08-29T21:33:47.009Z,96048.16
2023-08-29T21:36:15.458Z,96043.50
2023-08-29T21:38:45.185Z,96042.50
2023-08-29T21:41:12.379Z,96044.38
2023-08-29T21:43:39.519Z,96052.56
2023-08-29T21:46:07.753Z,96053.41
2023-08-29T21:48:36.292Z,96054.28
2023-08-29T21:51:03.813Z,96045.63
2023-08-29T21:53:31.450Z,96049.69
2023-08-29T21:55:59.070Z,96030.00
2023-08-29T21:58:26.879Z,96053.72
2023-08-29T22:00:55.548Z,96050.38
2023-08-29T22:03:24.232Z,96038.03
2023-08-29T22:05:53.296Z,96040.34
2023-08-29T22:08:21.660Z,96049.41
2023-08-29T22:10:49.634Z,96045.28
2023-08-29T22:13:16.986Z,96038.66
2023-08-29T22:15:44.391Z,96050.66
2023-08-29T22:18:12.473Z,96038.03
2023-08-29T22:20:40.291Z,96048.53
2023-08-29T22:23:08.693Z,96035.31
2023-08-29T22:25:36.981Z,96034.47
2023-08-29T22:28:04.483Z,96033.16
2023-08-29T22:30:31.621Z,96029.88
2023-08-29T22:32:58.802Z,96030.00
2023-08-29T22:35:26.085Z,96026.41
2023-08-29T22:37:53.752Z,96022.13
2023-08-29T22:40:20.855Z,96036.25
2023-08-29T22:42:47.968Z,96038.31
2023-08-29T22:45:15.473Z,96025.06
2023-08-29T22:47:43.528Z,96021.63
2023-08-29T22:50:11.262Z,96028.44
2023-08-29T22:52:41.264Z,96035.25
2023-08-29T22:55:10.362Z,96033.81
2023-08-29T22:57:37.703Z,96027.09
2023-08-29T23:00:07.441Z,96036.78
2023-08-29T23:02:34.691Z,96024.50
2023-08-29T23:05:20.266Z,96037.25
2023-08-29T23:07:47.489Z,96027.19
2023-08-29T23:10:15.134Z,96042.53
2023-08-29T23:12:42.519Z,96015.84
2023-08-29T23:15:11.392Z,96010.38
2023-08-29T23:17:39.108Z,96023.88
2023-08-29T23:20:09.186Z,96027.69
2023-08-29T23:22:36.819Z,96025.91
2023-08-29T23:25:07.620Z,96003.09
2023-08-29T23:27:36.382Z,96031.66
2023-08-29T23:30:03.742Z,96018.16
2023-08-29T23:32:31.631Z,96022.09
2023-08-29T23:34:59.781Z,95974.47
2023-08-29T23:37:26.912Z,96028.94
2023-08-29T23:39:54.549Z,96019.28
2023-08-29T23:42:21.617Z,96017.56
2023-08-29T23:44:50.373Z,96007.97
2023-08-29T23:47:17.596Z,96011.09
2023-08-29T23:49:46.185Z,96000.50
2023-08-29T23:52:13.559Z,96005.78
2023-08-29T23:54:40.578Z,96001.84
2023-08-29T23:57:07.976Z,95980.16
2023-08-29T23:59:36.181Z,96000.13
